Dades meteomassalio
Diari Summary for Gener 14, 2017 Units:  Metric    English   Both
« Previous Day
Next Day »
Diari Semanal Mensual Anual Personalitzat
  Maxima: Minima: Mijana:
Temperatura: 8.3 °C 3.2 °C 5.1 °C
Rosada: 1.3 °C -1.0 °C 0.4 °C
Humitat: 81 % 53 % 72 %
Velocitat del vent: 57.4 km/h 9.3 km/h 32.1 km/h
Racha vent: 57.4 km/h - -
Vent:- - NW
Pressio: 1027.3 hPa 1023.9 hPa -
Pluja: 0.0 mm    
Historical Graphs
 
 
Tabular Data for Gener 14, 2017
Time Temperature Dew Point Pressure Wind Wind Speed Wind Gust Humidity Rainfall Rate (Hourly) solar Conditions
00:02 4.1 °C 0.9 °C 1024.3 hPa WNW 20.4 km/h 20.4 km/h 80 % 0.0 mm 0.0 W/m2 CLR
00:07 4.0 °C 0.8 °C 1024.3 hPa NW 22.2 km/h 22.2 km/h 80 % 0.0 mm 0.0 W/m2 CLR
00:12 3.9 °C 0.8 °C 1023.9 hPa NW 20.4 km/h 20.4 km/h 80 % 0.0 mm 0.0 W/m2 CLR
00:17 4.0 °C 0.8 °C 1023.9 hPa NW 24.1 km/h 24.1 km/h 80 % 0.0 mm 0.0 W/m2 CLR
00:22 4.0 °C 0.8 °C 1023.9 hPa NW 22.2 km/h 22.2 km/h 80 % 0.0 mm 0.0 W/m2 CLR
00:27 3.9 °C 0.8 °C 1023.9 hPa WNW 18.5 km/h 18.5 km/h 80 % 0.0 mm 0.0 W/m2 CLR
00:32 4.0 °C 0.8 °C 1023.9 hPa WNW 20.4 km/h 20.4 km/h 80 % 0.0 mm 0.0 W/m2 CLR
00:37 4.0 °C 0.8 °C 1023.9 hPa WNW 22.2 km/h 22.2 km/h 80 % 0.0 mm 0.0 W/m2 CLR
00:42 4.0 °C 0.8 °C 1023.9 hPa NW 18.5 km/h 18.5 km/h 80 % 0.0 mm 0.0 W/m2 CLR
00:47 4.1 °C 0.9 °C 1023.9 hPa NW 25.9 km/h 25.9 km/h 80 % 0.0 mm 0.0 W/m2 CLR
00:52 4.1 °C 0.9 °C 1023.9 hPa NW 20.4 km/h 20.4 km/h 80 % 0.0 mm 0.0 W/m2 CLR
00:57 4.1 °C 0.9 °C 1024.3 hPa NW 22.2 km/h 22.2 km/h 80 % 0.0 mm 0.0 W/m2 CLR
01:02 4.0 °C 0.8 °C 1023.9 hPa NW 22.2 km/h 22.2 km/h 80 % 0.0 mm 0.0 W/m2 CLR
01:07 3.9 °C 0.8 °C 1023.9 hPa NW 20.4 km/h 20.6 km/h 80 % 0.0 mm 0.0 W/m2 CLR
01:12 3.9 °C 0.8 °C 1023.9 hPa NW 18.5 km/h 18.5 km/h 80 % 0.0 mm 0.0 W/m2 CLR
01:17 3.9 °C 0.9 °C 1024.3 hPa NW 24.1 km/h 24.1 km/h 81 % 0.0 mm 0.0 W/m2 CLR
01:22 4.0 °C 1.1 °C 1024.3 hPa NW 24.1 km/h 24.1 km/h 81 % 0.0 mm 0.0 W/m2 CLR
01:27 4.0 °C 0.8 °C 1024.3 hPa WNW 18.5 km/h 19.5 km/h 80 % 0.0 mm 0.0 W/m2 CLR
01:32 4.0 °C 0.8 °C 1024.3 hPa WNW 24.1 km/h 24.1 km/h 80 % 0.0 mm 0.0 W/m2 CLR
01:37 3.9 °C 0.8 °C 1024.3 hPa NW 18.5 km/h 18.5 km/h 80 % 0.0 mm 0.0 W/m2 CLR
01:42 4.0 °C 0.8 °C 1024.6 hPa NW 18.5 km/h 18.5 km/h 80 % 0.0 mm 0.0 W/m2 CLR
01:47 4.0 °C 0.8 °C 1024.6 hPa NW 19.3 km/h 19.3 km/h 80 % 0.0 mm 0.0 W/m2 CLR
01:52 4.0 °C 0.8 °C 1024.6 hPa NW 24.1 km/h 24.1 km/h 80 % 0.0 mm 0.0 W/m2 CLR
01:57 4.0 °C 0.8 °C 1024.6 hPa NNW 18.5 km/h 18.5 km/h 80 % 0.0 mm 0.0 W/m2 CLR
02:02 4.0 °C 0.8 °C 1024.6 hPa NNW 18.5 km/h 18.5 km/h 80 % 0.0 mm 0.0 W/m2 CLR
02:07 3.9 °C 0.8 °C 1024.6 hPa NW 13.0 km/h 13.0 km/h 80 % 0.0 mm 0.0 W/m2 CLR
02:12 3.9 °C 0.9 °C 1024.6 hPa NW 20.4 km/h 20.4 km/h 81 % 0.0 mm 0.0 W/m2 CLR
02:17 3.9 °C 0.9 °C 1024.6 hPa NW 20.4 km/h 20.4 km/h 81 % 0.0 mm 0.0 W/m2 CLR
02:22 3.8 °C 0.9 °C 1024.6 hPa NW 16.1 km/h 16.1 km/h 81 % 0.0 mm 0.0 W/m2 CLR
02:27 3.8 °C 0.9 °C 1024.6 hPa NW 20.4 km/h 20.4 km/h 81 % 0.0 mm 0.0 W/m2 CLR
02:32 3.8 °C 0.8 °C 1024.6 hPa NW 25.9 km/h 25.9 km/h 81 % 0.0 mm 0.0 W/m2 CLR
02:37 3.7 °C 0.8 °C 1024.6 hPa NW 14.8 km/h 14.8 km/h 81 % 0.0 mm 0.0 W/m2 CLR
02:42 3.7 °C 0.8 °C 1024.6 hPa NW 16.7 km/h 16.7 km/h 81 % 0.0 mm 0.0 W/m2 CLR
02:47 3.7 °C 0.8 °C 1024.6 hPa NW 18.5 km/h 18.5 km/h 81 % 0.0 mm 0.0 W/m2 CLR
02:52 3.7 °C 0.7 °C 1024.6 hPa NW 17.7 km/h 17.7 km/h 81 % 0.0 mm 0.0 W/m2 CLR
02:57 3.7 °C 0.8 °C 1024.6 hPa NW 13.0 km/h 13.0 km/h 81 % 0.0 mm 0.0 W/m2 CLR
03:02 3.6 °C 0.7 °C 1024.6 hPa NW 19.3 km/h 19.3 km/h 81 % 0.0 mm 0.0 W/m2 CLR
03:07 3.7 °C 0.8 °C 1024.6 hPa NW 13.0 km/h 13.0 km/h 81 % 0.0 mm 0.0 W/m2 CLR
03:12 3.8 °C 0.9 °C 1024.6 hPa NW 18.5 km/h 18.5 km/h 81 % 0.0 mm 0.0 W/m2 CLR
03:17 3.8 °C 0.7 °C 1024.6 hPa WNW 19.3 km/h 19.3 km/h 80 % 0.0 mm 0.0 W/m2 CLR
03:22 3.8 °C 0.7 °C 1024.6 hPa WNW 18.5 km/h 18.5 km/h 80 % 0.0 mm 0.0 W/m2 CLR
03:27 3.7 °C 0.6 °C 1024.6 hPa WNW 16.7 km/h 16.7 km/h 80 % 0.0 mm 0.0 W/m2 CLR
03:32 3.6 °C 0.7 °C 1024.6 hPa NW 22.2 km/h 22.2 km/h 81 % 0.0 mm 0.0 W/m2 CLR
03:37 3.6 °C 0.7 °C 1024.6 hPa NW 20.4 km/h 20.4 km/h 81 % 0.0 mm 0.0 W/m2 CLR
03:42 3.7 °C 0.8 °C 1024.6 hPa NW 24.1 km/h 24.1 km/h 81 % 0.0 mm 0.0 W/m2 CLR
03:47 3.7 °C 0.8 °C 1024.6 hPa NW 18.5 km/h 18.5 km/h 81 % 0.0 mm 0.0 W/m2 CLR
03:52 3.7 °C 0.7 °C 1024.6 hPa NW 24.1 km/h 24.1 km/h 81 % 0.0 mm 0.0 W/m2 CLR
03:57 3.6 °C 0.7 °C 1024.9 hPa NW 18.5 km/h 18.5 km/h 81 % 0.0 mm 0.0 W/m2 CLR
04:02 3.7 °C 0.8 °C 1024.6 hPa NW 20.4 km/h 20.4 km/h 81 % 0.0 mm 0.0 W/m2 CLR
04:08 3.7 °C 0.8 °C 1024.6 hPa NW 20.4 km/h 20.4 km/h 81 % 0.0 mm 0.0 W/m2 CLR
04:13 3.8 °C 0.7 °C 1024.9 hPa NW 18.5 km/h 18.5 km/h 80 % 0.0 mm 0.0 W/m2 CLR
04:18 3.7 °C 0.7 °C 1024.6 hPa NW 16.7 km/h 16.7 km/h 81 % 0.0 mm 0.0 W/m2 CLR
04:23 3.7 °C 0.7 °C 1024.6 hPa NW 18.5 km/h 18.5 km/h 81 % 0.0 mm 0.0 W/m2 CLR
04:28 3.6 °C 0.7 °C 1024.9 hPa NW 14.8 km/h 14.8 km/h 81 % 0.0 mm 0.0 W/m2 CLR
04:33 3.6 °C 0.6 °C 1024.6 hPa NW 9.3 km/h 9.3 km/h 81 % 0.0 mm 0.0 W/m2 CLR
04:38 3.6 °C 0.6 °C 1024.9 hPa NW 12.9 km/h 12.9 km/h 81 % 0.0 mm 0.0 W/m2 CLR
04:43 3.6 °C 0.6 °C 1024.9 hPa NNW 18.5 km/h 18.5 km/h 81 % 0.0 mm 0.0 W/m2 CLR
04:48 3.6 °C 0.6 °C 1024.9 hPa NW 16.7 km/h 16.7 km/h 81 % 0.0 mm 0.0 W/m2 CLR
04:53 3.6 °C 0.6 °C 1024.6 hPa NW 18.5 km/h 18.5 km/h 81 % 0.0 mm 0.0 W/m2 CLR
04:58 3.6 °C 0.6 °C 1024.6 hPa NW 22.2 km/h 22.2 km/h 81 % 0.0 mm 0.0 W/m2 CLR
05:03 3.6 °C 0.7 °C 1024.6 hPa NW 16.7 km/h 16.7 km/h 81 % 0.0 mm 0.0 W/m2 CLR
05:08 3.6 °C 0.7 °C 1024.6 hPa NW 14.8 km/h 14.8 km/h 81 % 0.0 mm 0.0 W/m2 CLR
05:13 3.6 °C 0.5 °C 1024.6 hPa NW 13.0 km/h 13.0 km/h 80 % 0.0 mm 0.0 W/m2 CLR
05:18 3.6 °C 0.4 °C 1024.3 hPa NW 12.9 km/h 12.9 km/h 80 % 0.0 mm 0.0 W/m2 CLR
05:23 3.6 °C 0.4 °C 1024.3 hPa WNW 14.8 km/h 14.8 km/h 80 % 0.0 mm 0.0 W/m2 CLR
05:28 3.5 °C 0.4 °C 1024.3 hPa WNW 9.3 km/h 9.3 km/h 80 % 0.0 mm 0.0 W/m2 CLR
05:33 3.4 °C 0.3 °C 1024.3 hPa NW 14.8 km/h 14.8 km/h 80 % 0.0 mm 0.0 W/m2 CLR
05:38 3.4 °C 0.3 °C 1024.3 hPa NW 20.9 km/h 20.9 km/h 80 % 0.0 mm 0.0 W/m2 CLR
05:43 3.5 °C 0.4 °C 1024.3 hPa NW 20.4 km/h 20.4 km/h 80 % 0.0 mm 0.0 W/m2 CLR
05:48 3.4 °C 0.3 °C 1024.3 hPa WNW 18.5 km/h 18.5 km/h 80 % 0.0 mm 0.0 W/m2 CLR
05:53 3.4 °C 0.3 °C 1024.3 hPa WNW 24.1 km/h 24.1 km/h 80 % 0.0 mm 0.0 W/m2 CLR
05:58 3.6 °C 0.4 °C 1024.3 hPa WNW 25.9 km/h 25.9 km/h 80 % 0.0 mm 0.0 W/m2 CLR
06:03 3.6 °C 0.5 °C 1024.3 hPa NW 29.6 km/h 29.6 km/h 80 % 0.0 mm 0.0 W/m2 CLR
06:08 3.6 °C 0.5 °C 1024.3 hPa NW 25.9 km/h 25.9 km/h 80 % 0.0 mm 0.0 W/m2 CLR
06:13 3.6 °C 0.5 °C 1024.3 hPa NW 24.1 km/h 24.1 km/h 80 % 0.0 mm 0.0 W/m2 CLR
06:18 3.6 °C 0.3 °C 1024.3 hPa NW 31.5 km/h 31.5 km/h 79 % 0.0 mm 0.0 W/m2 CLR
06:23 3.6 °C 0.3 °C 1024.6 hPa NW 22.2 km/h 22.2 km/h 79 % 0.0 mm 0.0 W/m2 CLR
06:28 3.6 °C 0.5 °C 1024.3 hPa NW 27.4 km/h 27.4 km/h 80 % 0.0 mm 0.0 W/m2 CLR
06:33 3.6 °C 0.3 °C 1024.3 hPa WNW 24.1 km/h 24.1 km/h 79 % 0.0 mm 0.0 W/m2 CLR
06:38 3.6 °C 0.3 °C 1024.3 hPa WNW 24.1 km/h 24.1 km/h 79 % 0.0 mm 0.0 W/m2 CLR
06:43 3.5 °C 0.4 °C 1024.3 hPa WNW 24.1 km/h 24.1 km/h 80 % 0.0 mm 0.0 W/m2 CLR
06:48 3.5 °C 0.4 °C 1024.3 hPa WNW 27.8 km/h 27.8 km/h 80 % 0.0 mm 0.0 W/m2 CLR
06:53 3.5 °C 0.4 °C 1024.6 hPa WNW 29.6 km/h 29.6 km/h 80 % 0.0 mm 0.0 W/m2 CLR
06:58 3.4 °C 0.3 °C 1024.3 hPa WNW 25.9 km/h 25.9 km/h 80 % 0.0 mm 0.0 W/m2 CLR
07:03 3.3 °C 0.2 °C 1024.3 hPa WNW 20.4 km/h 20.4 km/h 80 % 0.0 mm 0.0 W/m2 CLR
07:08 3.3 °C 0.2 °C 1024.6 hPa WNW 25.9 km/h 25.9 km/h 80 % 0.0 mm 0.0 W/m2 CLR
07:13 3.3 °C 0.2 °C 1024.6 hPa WNW 22.2 km/h 22.2 km/h 80 % 0.0 mm 0.0 W/m2 CLR
07:18 3.3 °C 0.2 °C 1024.6 hPa NW 25.9 km/h 25.9 km/h 80 % 0.0 mm 0.0 W/m2 CLR
07:23 3.3 °C 0.2 °C 1024.6 hPa NW 25.9 km/h 25.9 km/h 80 % 0.0 mm 0.0 W/m2 CLR
07:28 3.2 °C -0.1 °C 1024.6 hPa NW 24.1 km/h 24.1 km/h 79 % 0.0 mm 0.0 W/m2 CLR
07:33 3.3 °C 0.1 °C 1024.9 hPa NW 27.8 km/h 27.8 km/h 79 % 0.0 mm 0.0 W/m2 CLR
07:38 3.5 °C 0.2 °C 1024.9 hPa NNW 27.8 km/h 27.8 km/h 79 % 0.0 mm 0.0 W/m2 CLR
07:43 3.4 °C 0.2 °C 1024.9 hPa NNW 22.2 km/h 22.2 km/h 79 % 0.0 mm 0.0 W/m2 CLR
07:48 3.4 °C 0.1 °C 1025.3 hPa NNW 24.1 km/h 24.1 km/h 79 % 0.0 mm 0.0 W/m2 CLR
07:53 3.4 °C 0.1 °C 1025.3 hPa NW 19.3 km/h 19.3 km/h 79 % 0.0 mm 0.0 W/m2 CLR
07:58 3.3 °C 0.1 °C 1025.3 hPa NW 20.4 km/h 20.4 km/h 79 % 0.0 mm 0.0 W/m2 CLR
08:03 3.5 °C 0.2 °C 1025.6 hPa NNW 27.8 km/h 27.8 km/h 79 % 0.0 mm 0.0 W/m2 CLR
08:08 3.6 °C 0.3 °C 1025.6 hPa NW 24.1 km/h 24.1 km/h 79 % 0.0 mm 0.0 W/m2 CLR
08:13 3.7 °C 0.3 °C 1025.6 hPa NW 29.6 km/h 29.6 km/h 79 % 0.0 mm 0.0 W/m2 CLR
08:18 3.7 °C 0.2 °C 1025.6 hPa NW 40.2 km/h 40.2 km/h 78 % 0.0 mm 0.0 W/m2 CLR
08:23 3.8 °C 0.3 °C 1025.6 hPa NW 31.5 km/h 31.5 km/h 78 % 0.0 mm 5.0 W/m2 OVC
08:28 3.7 °C 0.4 °C 1025.6 hPa NW 33.3 km/h 33.3 km/h 79 % 0.0 mm 5.0 W/m2 BKN
08:33 3.6 °C 0.3 °C 1025.6 hPa NW 22.5 km/h 22.5 km/h 79 % 0.0 mm 7.0 W/m2 BKN
08:38 3.6 °C 0.3 °C 1025.6 hPa WNW 27.8 km/h 27.8 km/h 79 % 0.0 mm 11.0 W/m2 BKN
08:43 3.6 °C 0.3 °C 1025.6 hPa WNW 33.3 km/h 33.3 km/h 79 % 0.0 mm 14.0 W/m2 BKN
08:48 3.6 °C 0.3 °C 1025.6 hPa NW 24.1 km/h 24.1 km/h 79 % 0.0 mm 16.0 W/m2 BKN
08:53 3.6 °C 0.3 °C 1025.6 hPa NW 24.1 km/h 24.1 km/h 79 % 0.0 mm 16.0 W/m2 BKN
08:58 3.7 °C 0.3 °C 1025.6 hPa WNW 29.6 km/h 29.6 km/h 79 % 0.0 mm 21.0 W/m2 BKN
09:03 3.7 °C 0.4 °C 1025.6 hPa WNW 25.9 km/h 25.9 km/h 79 % 0.0 mm 26.0 W/m2 BKN
09:08 3.7 °C 0.4 °C 1025.6 hPa WNW 31.5 km/h 31.5 km/h 79 % 0.0 mm 26.0 W/m2 BKN
09:13 3.8 °C 0.5 °C 1025.6 hPa WNW 33.3 km/h 33.3 km/h 79 % 0.0 mm 28.0 W/m2 BKN
09:18 3.9 °C 0.6 °C 1025.6 hPa WNW 37.0 km/h 37.0 km/h 79 % 0.0 mm 26.0 W/m2 BKN
09:23 3.9 °C 0.6 °C 1025.6 hPa WNW 22.2 km/h 22.2 km/h 79 % 0.0 mm 35.0 W/m2 BKN
09:29 4.1 °C 0.6 °C 1025.6 hPa WNW 25.9 km/h 25.9 km/h 78 % 0.0 mm 97.0 W/m2 BKN
09:34 4.3 °C 0.8 °C 1025.6 hPa WNW 45.1 km/h 45.1 km/h 78 % 0.0 mm 113.0 W/m2 BKN
09:39 4.4 °C 0.8 °C 1026.0 hPa WNW 33.3 km/h 33.3 km/h 77 % 0.0 mm 84.0 W/m2 BKN
09:44 4.5 °C 0.8 °C 1026.0 hPa NW 37.0 km/h 37.0 km/h 77 % 0.0 mm 163.0 W/m2 BKN
09:49 4.6 °C 0.9 °C 1026.0 hPa NW 24.1 km/h 24.1 km/h 77 % 0.0 mm 148.0 W/m2 BKN
09:54 4.6 °C 0.9 °C 1026.0 hPa NW 29.6 km/h 29.6 km/h 77 % 0.0 mm 116.0 W/m2 BKN
09:59 4.7 °C 1.1 °C 1026.0 hPa WNW 24.1 km/h 24.1 km/h 77 % 0.0 mm 165.0 W/m2 BKN
10:04 4.8 °C 0.9 °C 1026.0 hPa NW 33.3 km/h 33.3 km/h 76 % 0.0 mm 98.0 W/m2 BKN
10:14 4.9 °C 1.1 °C 1026.0 hPa NW 29.6 km/h 29.6 km/h 76 % 0.0 mm 186.0 W/m2 BKN
10:19 5.0 °C 0.9 °C 1026.0 hPa NW 35.2 km/h 35.2 km/h 75 % 0.0 mm 237.0 W/m2 SCT
10:24 5.1 °C 1.1 °C 1026.0 hPa NW 38.9 km/h 38.9 km/h 75 % 0.0 mm 251.0 W/m2 SCT
10:29 5.2 °C 1.1 °C 1026.0 hPa NW 38.9 km/h 38.9 km/h 75 % 0.0 mm 264.0 W/m2 SCT
10:34 5.3 °C 1.3 °C 1026.0 hPa NW 27.8 km/h 27.8 km/h 75 % 0.0 mm 279.0 W/m2 SCT
10:39 5.5 °C 1.2 °C 1026.0 hPa NW 37.0 km/h 37.0 km/h 74 % 0.0 mm 292.0 W/m2 SCT
10:44 5.6 °C 1.2 °C 1026.0 hPa NW 31.5 km/h 31.5 km/h 73 % 0.0 mm 302.0 W/m2 SCT
10:49 5.7 °C 1.1 °C 1026.0 hPa NW 42.6 km/h 42.6 km/h 72 % 0.0 mm 313.0 W/m2 FEW
10:54 5.8 °C 1.2 °C 1026.0 hPa NW 31.5 km/h 31.5 km/h 72 % 0.0 mm 322.0 W/m2 FEW
10:59 5.9 °C 1.1 °C 1026.0 hPa NW 38.9 km/h 38.9 km/h 71 % 0.0 mm 334.0 W/m2 FEW
11:04 6.1 °C 1.2 °C 1026.0 hPa NW 32.2 km/h 32.2 km/h 71 % 0.0 mm 345.0 W/m2 FEW
11:09 6.2 °C 0.9 °C 1026.0 hPa NNW 35.2 km/h 35.2 km/h 69 % 0.0 mm 357.0 W/m2 FEW
11:14 6.3 °C 0.8 °C 1026.0 hPa NNW 31.5 km/h 31.5 km/h 68 % 0.0 mm 325.0 W/m2 FEW
11:19 6.4 °C 0.8 °C 1026.0 hPa NW 35.2 km/h 35.2 km/h 67 % 0.0 mm 380.0 W/m2 FEW
11:24 6.6 °C 0.9 °C 1025.6 hPa NW 38.9 km/h 38.9 km/h 67 % 0.0 mm 390.0 W/m2 FEW
11:29 6.8 °C 0.9 °C 1025.6 hPa NNW 29.6 km/h 29.9 km/h 66 % 0.0 mm 383.0 W/m2 FEW
11:34 6.8 °C 0.7 °C 1025.6 hPa NNW 44.4 km/h 44.4 km/h 65 % 0.0 mm 411.0 W/m2 FEW
11:39 6.9 °C 0.8 °C 1025.6 hPa NW 37.0 km/h 37.0 km/h 65 % 0.0 mm 401.0 W/m2 FEW
11:44 7.1 °C 0.9 °C 1025.3 hPa NNW 46.3 km/h 46.3 km/h 65 % 0.0 mm 406.0 W/m2 FEW
11:49 6.9 °C 0.8 °C 1025.6 hPa NNW 55.5 km/h 55.5 km/h 65 % 0.0 mm 406.0 W/m2 FEW
11:54 6.7 °C 0.8 °C 1025.3 hPa NW 51.8 km/h 51.8 km/h 66 % 0.0 mm 422.0 W/m2 CLR
11:59 6.8 °C 1.1 °C 1025.3 hPa NW 37.0 km/h 37.0 km/h 67 % 0.0 mm 431.0 W/m2 CLR
12:04 6.9 °C 0.9 °C 1025.3 hPa NW 51.8 km/h 51.8 km/h 66 % 0.0 mm 429.0 W/m2 CLR
12:09 6.9 °C 1.2 °C 1024.9 hPa NW 37.0 km/h 37.0 km/h 67 % 0.0 mm 432.0 W/m2 CLR
12:14 7.0 °C 0.9 °C 1024.9 hPa NW 50.0 km/h 50.0 km/h 65 % 0.0 mm 436.0 W/m2 CLR
12:19 7.0 °C 0.7 °C 1024.9 hPa NW 55.5 km/h 55.5 km/h 64 % 0.0 mm 441.0 W/m2 CLR
12:24 7.2 °C 0.6 °C 1024.9 hPa NW 42.6 km/h 42.6 km/h 63 % 0.0 mm 445.0 W/m2 CLR
12:29 7.3 °C 0.4 °C 1024.9 hPa NW 50.0 km/h 50.0 km/h 62 % 0.0 mm 450.0 W/m2 CLR
12:34 7.4 °C 0.4 °C 1025.3 hPa NW 51.5 km/h 51.5 km/h 61 % 0.0 mm 452.0 W/m2 CLR
12:39 7.4 °C 0.3 °C 1025.3 hPa NNW 40.7 km/h 40.7 km/h 61 % 0.0 mm 454.0 W/m2 CLR
12:44 7.4 °C 0.6 °C 1025.3 hPa NNW 37.0 km/h 37.0 km/h 62 % 0.0 mm 457.0 W/m2 CLR
12:49 7.6 °C 0.3 °C 1025.3 hPa NW 44.4 km/h 44.4 km/h 60 % 0.0 mm 459.0 W/m2 CLR
12:54 7.6 °C 0.3 °C 1025.3 hPa NW 31.5 km/h 31.5 km/h 60 % 0.0 mm 462.0 W/m2 CLR
12:59 7.6 °C 0.1 °C 1025.3 hPa NNW 48.1 km/h 48.1 km/h 59 % 0.0 mm 462.0 W/m2 CLR
13:04 7.6 °C 0.1 °C 1025.3 hPa NNW 50.0 km/h 50.0 km/h 59 % 0.0 mm 462.0 W/m2 CLR
13:09 7.6 °C -0.2 °C 1024.9 hPa NNW 53.7 km/h 53.7 km/h 58 % 0.0 mm 464.0 W/m2 CLR
13:14 7.8 °C 0.1 °C 1024.9 hPa NNW 35.2 km/h 35.2 km/h 58 % 0.0 mm 464.0 W/m2 CLR
13:19 8.0 °C 0.0 °C 1025.3 hPa NNW 51.8 km/h 51.8 km/h 57 % 0.0 mm 464.0 W/m2 CLR
13:24 8.0 °C -0.3 °C 1024.9 hPa NNW 38.9 km/h 38.9 km/h 56 % 0.0 mm 462.0 W/m2 CLR
13:29 8.2 °C -0.1 °C 1024.9 hPa NNW 25.9 km/h 25.9 km/h 56 % 0.0 mm 461.0 W/m2 CLR
13:34 8.3 °C -0.5 °C 1024.9 hPa NNW 46.3 km/h 46.3 km/h 54 % 0.0 mm 462.0 W/m2 CLR
13:39 7.9 °C -0.8 °C 1024.9 hPa NNW 46.3 km/h 46.3 km/h 54 % 0.0 mm 455.0 W/m2 CLR
13:44 7.9 °C -0.3 °C 1024.6 hPa NNW 40.7 km/h 40.7 km/h 56 % 0.0 mm 454.0 W/m2 CLR
13:49 7.8 °C -0.2 °C 1024.6 hPa NNW 40.2 km/h 40.2 km/h 57 % 0.0 mm 454.0 W/m2 CLR
13:54 7.9 °C -0.3 °C 1024.9 hPa NNW 55.5 km/h 55.5 km/h 56 % 0.0 mm 450.0 W/m2 CLR
13:59 7.9 °C -0.3 °C 1024.9 hPa NNW 42.6 km/h 42.6 km/h 56 % 0.0 mm 448.0 W/m2 CLR
14:04 8.1 °C 0.3 °C 1024.9 hPa NNW 32.2 km/h 32.2 km/h 58 % 0.0 mm 443.0 W/m2 CLR
14:09 8.1 °C 0.1 °C 1024.9 hPa NNW 44.4 km/h 44.4 km/h 57 % 0.0 mm 443.0 W/m2 CLR
14:14 7.9 °C -0.1 °C 1024.9 hPa NNW 48.1 km/h 48.1 km/h 57 % 0.0 mm 436.0 W/m2 CLR
14:19 8.1 °C 0.1 °C 1024.6 hPa NNW 48.1 km/h 48.1 km/h 57 % 0.0 mm 427.0 W/m2 CLR
14:24 8.1 °C -0.4 °C 1024.6 hPa NNW 48.1 km/h 48.1 km/h 55 % 0.0 mm 429.0 W/m2 CLR
14:29 8.1 °C -0.2 °C 1024.9 hPa NNW 46.3 km/h 46.3 km/h 56 % 0.0 mm 420.0 W/m2 CLR
14:34 7.9 °C -0.1 °C 1024.6 hPa NNW 44.4 km/h 44.4 km/h 57 % 0.0 mm 410.0 W/m2 CLR
14:39 8.0 °C -0.5 °C 1024.9 hPa NNW 50.0 km/h 50.0 km/h 55 % 0.0 mm 399.0 W/m2 CLR
14:44 7.9 °C -0.3 °C 1024.9 hPa NW 57.4 km/h 57.4 km/h 56 % 0.0 mm 394.0 W/m2 CLR
14:49 7.9 °C -0.1 °C 1024.6 hPa NW 42.6 km/h 42.6 km/h 57 % 0.0 mm 390.0 W/m2 CLR
14:54 8.1 °C -0.4 °C 1024.6 hPa NNW 38.6 km/h 38.6 km/h 55 % 0.0 mm 381.0 W/m2 CLR
14:59 8.2 °C -0.3 °C 1024.6 hPa NNW 40.7 km/h 40.7 km/h 55 % 0.0 mm 369.0 W/m2 CLR
15:04 8.1 °C -0.2 °C 1024.9 hPa NW 42.6 km/h 42.6 km/h 56 % 0.0 mm 364.0 W/m2 CLR
15:09 7.9 °C -0.1 °C 1024.9 hPa NW 43.4 km/h 43.4 km/h 57 % 0.0 mm 355.0 W/m2 CLR
15:14 8.0 °C 0.0 °C 1024.6 hPa NW 43.4 km/h 43.4 km/h 57 % 0.0 mm 350.0 W/m2 CLR
15:19 8.1 °C 0.1 °C 1024.6 hPa NW 43.4 km/h 43.4 km/h 57 % 0.0 mm 338.0 W/m2 CLR
15:24 8.0 °C -0.3 °C 1024.6 hPa NNW 55.5 km/h 55.5 km/h 56 % 0.0 mm 327.0 W/m2 CLR
15:29 8.1 °C -0.2 °C 1024.9 hPa NW 42.6 km/h 42.6 km/h 56 % 0.0 mm 318.0 W/m2 CLR
15:34 8.2 °C -0.1 °C 1024.6 hPa NW 38.9 km/h 38.9 km/h 56 % 0.0 mm 309.0 W/m2 CLR
15:39 8.1 °C -0.4 °C 1024.9 hPa NW 42.6 km/h 42.6 km/h 55 % 0.0 mm 297.0 W/m2 CLR
15:44 8.1 °C -0.7 °C 1024.9 hPa NNW 48.1 km/h 48.1 km/h 54 % 0.0 mm 292.0 W/m2 CLR
15:49 8.1 °C -0.9 °C 1024.6 hPa NNW 46.3 km/h 46.3 km/h 53 % 0.0 mm 276.0 W/m2 CLR
15:54 8.1 °C -0.7 °C 1024.9 hPa NW 43.4 km/h 43.4 km/h 54 % 0.0 mm 264.0 W/m2 CLR
15:59 8.1 °C -0.7 °C 1024.9 hPa NW 42.6 km/h 42.6 km/h 54 % 0.0 mm 246.0 W/m2 CLR
16:04 7.9 °C -0.8 °C 1024.9 hPa NNW 38.6 km/h 38.6 km/h 54 % 0.0 mm 234.0 W/m2 CLR
16:09 7.9 °C -0.8 °C 1024.9 hPa NW 29.6 km/h 29.6 km/h 54 % 0.0 mm 221.0 W/m2 CLR
16:14 7.9 °C -0.8 °C 1024.9 hPa NNW 48.3 km/h 48.3 km/h 54 % 0.0 mm 209.0 W/m2 CLR
16:20 7.9 °C -0.6 °C 1024.9 hPa NNW 31.5 km/h 31.5 km/h 55 % 0.0 mm 193.0 W/m2 CLR
16:25 7.8 °C -0.9 °C 1024.9 hPa NW 53.7 km/h 53.7 km/h 54 % 0.0 mm 174.0 W/m2 CLR
16:30 7.8 °C -0.7 °C 1024.9 hPa NNW 40.7 km/h 40.7 km/h 55 % 0.0 mm 163.0 W/m2 CLR
16:35 7.8 °C -0.4 °C 1024.9 hPa NW 42.6 km/h 42.6 km/h 56 % 0.0 mm 148.0 W/m2 CLR
16:40 7.6 °C -0.9 °C 1024.9 hPa NW 46.3 km/h 46.3 km/h 55 % 0.0 mm 134.0 W/m2 CLR
16:45 7.6 °C -0.9 °C 1025.3 hPa NW 51.8 km/h 51.8 km/h 55 % 0.0 mm 118.0 W/m2 CLR
16:50 7.4 °C -0.8 °C 1024.9 hPa NNW 48.3 km/h 48.3 km/h 56 % 0.0 mm 104.0 W/m2 CLR
16:55 7.4 °C -0.8 °C 1024.9 hPa NNW 35.2 km/h 35.2 km/h 56 % 0.0 mm 93.0 W/m2 CLR
17:00 7.3 °C -0.9 °C 1024.9 hPa NNW 48.3 km/h 48.3 km/h 56 % 0.0 mm 79.0 W/m2 CLR
17:05 7.3 °C -0.9 °C 1024.9 hPa NNW 33.3 km/h 33.3 km/h 56 % 0.0 mm 60.0 W/m2 CLR
17:10 7.2 °C -1.0 °C 1025.3 hPa NNW 48.1 km/h 48.1 km/h 56 % 0.0 mm 53.0 W/m2 OVC
17:15 7.1 °C -0.8 °C 1024.9 hPa NNW 42.6 km/h 42.6 km/h 57 % 0.0 mm 40.0 W/m2 OVC
17:20 7.1 °C -0.9 °C 1024.9 hPa NW 46.3 km/h 46.3 km/h 57 % 0.0 mm 33.0 W/m2 OVC
17:25 7.0 °C -0.9 °C 1024.9 hPa NW 37.0 km/h 37.0 km/h 57 % 0.0 mm 23.0 W/m2 OVC
17:30 6.9 °C -0.8 °C 1025.3 hPa NW 31.5 km/h 31.5 km/h 58 % 0.0 mm 14.0 W/m2 OVC
17:35 6.8 °C -0.9 °C 1025.3 hPa NW 46.3 km/h 46.3 km/h 58 % 0.0 mm 12.0 W/m2 OVC
17:40 6.7 °C -0.7 °C 1025.3 hPa NW 38.9 km/h 38.9 km/h 59 % 0.0 mm 11.0 W/m2 OVC
17:45 6.6 °C -0.2 °C 1025.3 hPa NW 37.0 km/h 37.0 km/h 62 % 0.0 mm 9.0 W/m2 OVC
17:50 6.4 °C -0.1 °C 1025.3 hPa NW 42.6 km/h 42.6 km/h 63 % 0.0 mm 5.0 W/m2 OVC
17:55 6.3 °C -0.2 °C 1025.3 hPa NW 29.6 km/h 29.6 km/h 63 % 0.0 mm 5.0 W/m2 OVC
18:00 6.2 °C -0.1 °C 1025.6 hPa NW 37.0 km/h 37.0 km/h 64 % 0.0 mm 0.0 W/m2 CLR
18:05 6.2 °C -0.2 °C 1025.6 hPa NW 41.8 km/h 41.8 km/h 64 % 0.0 mm 0.0 W/m2 CLR
18:10 6.1 °C 0.0 °C 1025.6 hPa NW 38.9 km/h 38.9 km/h 65 % 0.0 mm 0.0 W/m2 CLR
18:15 6.0 °C -0.1 °C 1025.6 hPa NW 40.7 km/h 40.7 km/h 65 % 0.0 mm 0.0 W/m2 CLR
18:20 5.9 °C 0.0 °C 1025.6 hPa NW 46.3 km/h 46.3 km/h 66 % 0.0 mm 0.0 W/m2 CLR
18:25 5.8 °C 0.2 °C 1025.6 hPa NW 31.5 km/h 31.5 km/h 67 % 0.0 mm 0.0 W/m2 CLR
18:30 5.7 °C 0.3 °C 1026.0 hPa NW 33.3 km/h 33.3 km/h 68 % 0.0 mm 0.0 W/m2 CLR
18:35 5.6 °C 0.4 °C 1026.0 hPa NW 37.0 km/h 37.0 km/h 69 % 0.0 mm 0.0 W/m2 CLR
18:40 5.5 °C 0.3 °C 1026.0 hPa NW 27.8 km/h 27.8 km/h 69 % 0.0 mm 0.0 W/m2 CLR
18:45 5.6 °C 0.3 °C 1026.0 hPa NW 35.2 km/h 35.2 km/h 69 % 0.0 mm 0.0 W/m2 CLR
18:50 5.5 °C 0.3 °C 1026.0 hPa NW 31.5 km/h 31.5 km/h 69 % 0.0 mm 0.0 W/m2 CLR
18:55 5.4 °C 0.2 °C 1026.3 hPa NW 35.2 km/h 35.2 km/h 69 % 0.0 mm 0.0 W/m2 CLR
19:00 5.4 °C 0.3 °C 1026.3 hPa NW 38.9 km/h 38.9 km/h 70 % 0.0 mm 0.0 W/m2 CLR
19:05 5.3 °C 0.3 °C 1026.3 hPa NW 35.2 km/h 35.2 km/h 70 % 0.0 mm 0.0 W/m2 CLR
19:10 5.3 °C 0.3 °C 1026.3 hPa NW 33.3 km/h 33.3 km/h 70 % 0.0 mm 0.0 W/m2 CLR
19:15 5.3 °C 0.4 °C 1026.3 hPa NW 37.0 km/h 37.0 km/h 71 % 0.0 mm 0.0 W/m2 CLR
19:20 5.3 °C 0.4 °C 1026.3 hPa NW 38.9 km/h 38.9 km/h 71 % 0.0 mm 0.0 W/m2 CLR
19:25 5.2 °C 0.6 °C 1026.3 hPa NW 37.0 km/h 37.0 km/h 72 % 0.0 mm 0.0 W/m2 CLR
19:30 5.2 °C 0.6 °C 1026.3 hPa NW 31.5 km/h 31.5 km/h 72 % 0.0 mm 0.0 W/m2 CLR
19:35 5.2 °C 0.7 °C 1026.3 hPa NW 37.0 km/h 37.0 km/h 73 % 0.0 mm 0.0 W/m2 CLR
19:40 5.1 °C 0.7 °C 1026.3 hPa NW 35.2 km/h 35.2 km/h 73 % 0.0 mm 0.0 W/m2 CLR
19:45 5.1 °C 0.6 °C 1026.6 hPa NW 42.6 km/h 42.6 km/h 73 % 0.0 mm 0.0 W/m2 CLR
19:50 5.1 °C 0.8 °C 1026.3 hPa NW 42.6 km/h 42.6 km/h 74 % 0.0 mm 0.0 W/m2 CLR
19:55 5.0 °C 0.7 °C 1026.3 hPa NW 38.9 km/h 38.9 km/h 74 % 0.0 mm 0.0 W/m2 CLR
20:00 5.0 °C 0.7 °C 1026.6 hPa NW 31.5 km/h 32.8 km/h 74 % 0.0 mm 0.0 W/m2 CLR
20:05 4.9 °C 0.7 °C 1026.6 hPa NW 33.8 km/h 33.8 km/h 74 % 0.0 mm 0.0 W/m2 CLR
20:10 4.9 °C 0.8 °C 1026.6 hPa NW 37.0 km/h 37.0 km/h 75 % 0.0 mm 0.0 W/m2 CLR
20:15 4.8 °C 0.8 °C 1027.0 hPa NW 38.9 km/h 38.9 km/h 75 % 0.0 mm 0.0 W/m2 CLR
20:20 4.8 °C 0.7 °C 1027.0 hPa NW 35.2 km/h 35.2 km/h 75 % 0.0 mm 0.0 W/m2 CLR
20:25 4.7 °C 0.7 °C 1027.0 hPa NW 29.0 km/h 29.0 km/h 75 % 0.0 mm 0.0 W/m2 CLR
20:30 4.7 °C 0.8 °C 1027.0 hPa NW 40.7 km/h 40.7 km/h 76 % 0.0 mm 0.0 W/m2 CLR
20:35 4.6 °C 0.7 °C 1027.0 hPa NW 33.3 km/h 33.3 km/h 76 % 0.0 mm 0.0 W/m2 CLR
20:40 4.6 °C 0.7 °C 1027.0 hPa NW 42.6 km/h 42.6 km/h 76 % 0.0 mm 0.0 W/m2 CLR
20:45 4.6 °C 0.7 °C 1027.0 hPa NW 38.9 km/h 38.9 km/h 76 % 0.0 mm 0.0 W/m2 CLR
20:50 4.7 °C 0.8 °C 1027.0 hPa NW 43.4 km/h 43.4 km/h 76 % 0.0 mm 0.0 W/m2 CLR
20:55 4.6 °C 0.7 °C 1027.0 hPa NW 33.3 km/h 33.3 km/h 76 % 0.0 mm 0.0 W/m2 CLR
21:00 4.6 °C 0.7 °C 1027.3 hPa NW 41.8 km/h 41.8 km/h 76 % 0.0 mm 0.0 W/m2 CLR
21:05 4.5 °C 0.6 °C 1027.0 hPa NW 33.3 km/h 33.3 km/h 76 % 0.0 mm 0.0 W/m2 CLR
21:10 4.4 °C 0.5 °C 1027.3 hPa NW 40.7 km/h 40.7 km/h 76 % 0.0 mm 0.0 W/m2 CLR
21:15 4.4 °C 0.5 °C 1027.3 hPa NW 33.3 km/h 33.3 km/h 76 % 0.0 mm 0.0 W/m2 CLR
21:20 4.3 °C 0.6 °C 1027.3 hPa NW 40.7 km/h 40.7 km/h 77 % 0.0 mm 0.0 W/m2 CLR
21:25 4.3 °C 0.4 °C 1027.3 hPa NW 29.6 km/h 29.6 km/h 76 % 0.0 mm 0.0 W/m2 CLR
21:30 4.2 °C 0.6 °C 1027.3 hPa NW 29.6 km/h 29.6 km/h 77 % 0.0 mm 0.0 W/m2 CLR
21:35 4.2 °C 0.5 °C 1027.3 hPa NW 22.2 km/h 22.2 km/h 77 % 0.0 mm 0.0 W/m2 CLR
21:40 4.2 °C 0.6 °C 1027.3 hPa NW 35.2 km/h 35.2 km/h 77 % 0.0 mm 0.0 W/m2 CLR
21:45 4.2 °C 0.3 °C 1027.3 hPa NW 25.9 km/h 25.9 km/h 76 % 0.0 mm 0.0 W/m2 CLR
21:50 4.1 °C 0.4 °C 1027.3 hPa NW 24.1 km/h 24.1 km/h 77 % 0.0 mm 0.0 W/m2 CLR
21:55 4.1 °C 0.4 °C 1027.3 hPa NW 29.6 km/h 29.6 km/h 77 % 0.0 mm 0.0 W/m2 CLR
22:00 4.1 °C 0.4 °C 1027.3 hPa WNW 25.9 km/h 25.9 km/h 77 % 0.0 mm 0.0 W/m2 CLR
22:05 4.0 °C 0.3 °C 1027.3 hPa WNW 29.6 km/h 29.6 km/h 77 % 0.0 mm 0.0 W/m2 CLR
22:10 4.1 °C 0.4 °C 1027.3 hPa NW 27.8 km/h 27.8 km/h 77 % 0.0 mm 0.0 W/m2 CLR
22:15 4.1 °C 0.2 °C 1027.3 hPa NW 27.8 km/h 27.8 km/h 76 % 0.0 mm 0.0 W/m2 CLR
22:20 4.1 °C 0.3 °C 1027.3 hPa NW 31.5 km/h 31.5 km/h 76 % 0.0 mm 0.0 W/m2 CLR
22:25 4.1 °C 0.3 °C 1027.3 hPa WNW 31.5 km/h 31.5 km/h 76 % 0.0 mm 0.0 W/m2 CLR
22:31 4.2 °C 0.4 °C 1027.3 hPa NW 29.6 km/h 29.6 km/h 76 % 0.0 mm 0.0 W/m2 CLR
22:36 4.2 °C 0.2 °C 1027.3 hPa NW 38.9 km/h 38.9 km/h 75 % 0.0 mm 0.0 W/m2 CLR
22:41 4.3 °C 0.2 °C 1027.3 hPa NW 42.6 km/h 42.6 km/h 75 % 0.0 mm 0.0 W/m2 CLR
22:46 4.2 °C 0.4 °C 1027.0 hPa NW 29.6 km/h 29.6 km/h 76 % 0.0 mm 0.0 W/m2 CLR
22:50 4.2 °C 0.4 °C 1027.3 hPa NW 42.6 km/h 42.6 km/h 76 % 0.0 mm 0.0 W/m2 CLR
22:56 4.3 °C 0.4 °C 1027.3 hPa NW 38.9 km/h 38.9 km/h 76 % 0.0 mm 0.0 W/m2 CLR
23:00 4.3 °C 0.4 °C 1027.3 hPa NW 31.5 km/h 31.5 km/h 76 % 0.0 mm 0.0 W/m2 CLR
23:05 4.3 °C 0.4 °C 1027.3 hPa NW 33.3 km/h 33.3 km/h 76 % 0.0 mm 0.0 W/m2 CLR
23:11 4.3 °C 0.7 °C 1027.3 hPa NW 35.2 km/h 35.2 km/h 77 % 0.0 mm 0.0 W/m2 CLR
23:16 4.3 °C 0.6 °C 1027.3 hPa NW 29.6 km/h 29.6 km/h 77 % 0.0 mm 0.0 W/m2 CLR
23:21 4.2 °C 0.6 °C 1027.0 hPa NW 33.3 km/h 33.3 km/h 77 % 0.0 mm 0.0 W/m2 CLR
23:26 4.3 °C 0.6 °C 1027.3 hPa NW 42.6 km/h 42.6 km/h 77 % 0.0 mm 0.0 W/m2 CLR
23:31 4.3 °C 0.6 °C 1027.3 hPa NW 35.2 km/h 35.2 km/h 77 % 0.0 mm 0.0 W/m2 CLR
23:36 4.3 °C 0.6 °C 1027.0 hPa NW 40.7 km/h 40.7 km/h 77 % 0.0 mm 0.0 W/m2 CLR
23:41 4.2 °C 0.6 °C 1027.0 hPa NW 38.9 km/h 38.9 km/h 77 % 0.0 mm 0.0 W/m2 CLR
23:46 4.3 °C 0.8 °C 1027.0 hPa NW 38.9 km/h 38.9 km/h 78 % 0.0 mm 0.0 W/m2 CLR
23:51 4.3 °C 0.8 °C 1027.0 hPa NW 33.3 km/h 33.3 km/h 78 % 0.0 mm 0.0 W/m2 CLR
23:56 4.3 °C 0.8 °C 1027.0 hPa NW 35.2 km/h 35.2 km/h 78 % 0.0 mm 0.0 W/m2 CLR
Lo Temps de Massalio
Compliments of Weather Underground - 1.25 mb